sensor_id;sensor_type;location;lat;lon;timestamp;P1;durP1;ratioP1;P2;durP2;ratioP2
3463;SDS011;3551;41.578;24.706;2024-03-07T00:00:04;19.50;;;9.00;;
3463;SDS011;3551;41.578;24.706;2024-03-07T00:02:40;19.33;;;11.13;;
3463;SDS011;3551;41.578;24.706;2024-03-07T00:05:08;26.00;;;11.63;;
3463;SDS011;3551;41.578;24.706;2024-03-07T00:07:36;30.90;;;10.25;;
3463;SDS011;3551;41.578;24.706;2024-03-07T00:10:04;16.10;;;9.63;;
3463;SDS011;3551;41.578;24.706;2024-03-07T00:12:32;19.63;;;10.30;;
3463;SDS011;3551;41.578;24.706;2024-03-07T00:15:01;17.73;;;10.65;;
3463;SDS011;3551;41.578;24.706;2024-03-07T00:17:28;19.60;;;10.57;;
3463;SDS011;3551;41.578;24.706;2024-03-07T00:19:56;22.40;;;10.10;;
3463;SDS011;3551;41.578;24.706;2024-03-07T00:22:23;17.13;;;9.55;;
3463;SDS011;3551;41.578;24.706;2024-03-07T00:24:52;15.13;;;8.95;;
3463;SDS011;3551;41.578;24.706;2024-03-07T00:27:19;14.07;;;8.15;;
3463;SDS011;3551;41.578;24.706;2024-03-07T00:29:46;15.43;;;8.48;;
3463;SDS011;3551;41.578;24.706;2024-03-07T00:32:18;14.50;;;8.85;;
3463;SDS011;3551;41.578;24.706;2024-03-07T00:34:45;17.52;;;9.35;;
3463;SDS011;3551;41.578;24.706;2024-03-07T00:37:13;12.50;;;7.80;;
3463;SDS011;3551;41.578;24.706;2024-03-07T00:39:40;17.00;;;10.32;;
3463;SDS011;3551;41.578;24.706;2024-03-07T00:42:08;19.88;;;10.13;;
3463;SDS011;3551;41.578;24.706;2024-03-07T00:44:35;16.15;;;9.63;;
3463;SDS011;3551;41.578;24.706;2024-03-07T00:47:02;17.10;;;10.43;;
3463;SDS011;3551;41.578;24.706;2024-03-07T00:49:29;18.95;;;10.02;;
3463;SDS011;3551;41.578;24.706;2024-03-07T00:51:57;17.48;;;10.15;;
3463;SDS011;3551;41.578;24.706;2024-03-07T00:54:25;19.38;;;10.98;;
3463;SDS011;3551;41.578;24.706;2024-03-07T00:56:53;16.60;;;9.75;;
3463;SDS011;3551;41.578;24.706;2024-03-07T00:59:20;15.85;;;9.27;;
3463;SDS011;3551;41.578;24.706;2024-03-07T01:01:47;14.57;;;8.57;;
3463;SDS011;3551;41.578;24.706;2024-03-07T01:04:15;17.23;;;10.02;;
3463;SDS011;3551;41.578;24.706;2024-03-07T01:06:42;17.00;;;9.20;;
3463;SDS011;3551;41.578;24.706;2024-03-07T01:09:09;16.95;;;10.00;;
3463;SDS011;3551;41.578;24.706;2024-03-07T01:11:41;16.23;;;9.07;;
3463;SDS011;3551;41.578;24.706;2024-03-07T01:14:10;15.05;;;7.65;;
3463;SDS011;3551;41.578;24.706;2024-03-07T01:16:37;15.73;;;8.15;;
3463;SDS011;3551;41.578;24.706;2024-03-07T01:19:04;15.52;;;8.38;;
3463;SDS011;3551;41.578;24.706;2024-03-07T01:21:32;18.15;;;7.55;;
3463;SDS011;3551;41.578;24.706;2024-03-07T01:24:00;16.45;;;7.60;;
3463;SDS011;3551;41.578;24.706;2024-03-07T01:26:27;16.35;;;7.03;;
3463;SDS011;3551;41.578;24.706;2024-03-07T01:28:55;16.85;;;8.65;;
3463;SDS011;3551;41.578;24.706;2024-03-07T01:31:23;14.95;;;8.35;;
3463;SDS011;3551;41.578;24.706;2024-03-07T01:33:50;10.98;;;6.97;;
3463;SDS011;3551;41.578;24.706;2024-03-07T01:36:18;14.38;;;7.57;;
3463;SDS011;3551;41.578;24.706;2024-03-07T01:38:45;13.48;;;7.55;;
3463;SDS011;3551;41.578;24.706;2024-03-07T01:41:13;13.02;;;7.00;;
3463;SDS011;3551;41.578;24.706;2024-03-07T01:43:41;14.88;;;8.20;;
3463;SDS011;3551;41.578;24.706;2024-03-07T01:46:09;11.65;;;6.60;;
3463;SDS011;3551;41.578;24.706;2024-03-07T01:48:37;13.43;;;7.32;;
3463;SDS011;3551;41.578;24.706;2024-03-07T01:51:05;11.75;;;6.53;;
3463;SDS011;3551;41.578;24.706;2024-03-07T01:53:33;12.93;;;7.22;;
3463;SDS011;3551;41.578;24.706;2024-03-07T01:56:01;12.90;;;6.70;;
3463;SDS011;3551;41.578;24.706;2024-03-07T01:58:30;13.13;;;8.00;;
3463;SDS011;3551;41.578;24.706;2024-03-07T02:00:57;14.20;;;8.38;;
3463;SDS011;3551;41.578;24.706;2024-03-07T02:03:26;15.03;;;7.73;;
3463;SDS011;3551;41.578;24.706;2024-03-07T02:05:53;13.27;;;7.63;;
3463;SDS011;3551;41.578;24.706;2024-03-07T02:08:20;15.27;;;7.23;;
3463;SDS011;3551;41.578;24.706;2024-03-07T02:10:47;14.05;;;8.35;;
3463;SDS011;3551;41.578;24.706;2024-03-07T02:13:15;15.45;;;7.28;;
3463;SDS011;3551;41.578;24.706;2024-03-07T02:15:43;11.93;;;7.00;;
3463;SDS011;3551;41.578;24.706;2024-03-07T02:18:10;14.70;;;7.80;;
3463;SDS011;3551;41.578;24.706;2024-03-07T02:23:10;12.27;;;6.43;;
3463;SDS011;3551;41.578;24.706;2024-03-07T02:25:37;13.30;;;6.73;;
3463;SDS011;3551;41.578;24.706;2024-03-07T02:28:04;15.35;;;8.85;;
3463;SDS011;3551;41.578;24.706;2024-03-07T02:30:31;12.90;;;7.57;;
3463;SDS011;3551;41.578;24.706;2024-03-07T02:32:58;13.32;;;7.05;;
3463;SDS011;3551;41.578;24.706;2024-03-07T02:35:31;9.67;;;5.77;;
3463;SDS011;3551;41.578;24.706;2024-03-07T02:38:01;14.13;;;6.23;;
3463;SDS011;3551;41.578;24.706;2024-03-07T02:40:29;11.63;;;5.50;;
3463;SDS011;3551;41.578;24.706;2024-03-07T02:42:56;10.90;;;5.77;;
3463;SDS011;3551;41.578;24.706;2024-03-07T02:45:23;10.87;;;5.60;;
3463;SDS011;3551;41.578;24.706;2024-03-07T02:47:50;11.00;;;6.60;;
3463;SDS011;3551;41.578;24.706;2024-03-07T02:50:19;11.82;;;5.82;;
3463;SDS011;3551;41.578;24.706;2024-03-07T02:52:47;9.50;;;6.70;;
3463;SDS011;3551;41.578;24.706;2024-03-07T02:55:16;15.30;;;6.75;;
3463;SDS011;3551;41.578;24.706;2024-03-07T02:57:44;10.13;;;6.28;;
3463;SDS011;3551;41.578;24.706;2024-03-07T03:00:11;11.23;;;6.57;;
3463;SDS011;3551;41.578;24.706;2024-03-07T03:02:51;10.95;;;6.60;;
3463;SDS011;3551;41.578;24.706;2024-03-07T03:05:19;16.17;;;7.75;;
3463;SDS011;3551;41.578;24.706;2024-03-07T03:07:46;13.35;;;7.35;;
3463;SDS011;3551;41.578;24.706;2024-03-07T03:10:20;11.98;;;7.45;;
3463;SDS011;3551;41.578;24.706;2024-03-07T03:12:51;16.73;;;7.75;;
3463;SDS011;3551;41.578;24.706;2024-03-07T03:15:19;16.85;;;7.68;;
3463;SDS011;3551;41.578;24.706;2024-03-07T03:17:46;11.07;;;6.60;;
3463;SDS011;3551;41.578;24.706;2024-03-07T03:20:13;10.80;;;7.07;;
3463;SDS011;3551;41.578;24.706;2024-03-07T03:22:50;12.82;;;6.18;;
3463;SDS011;3551;41.578;24.706;2024-03-07T03:25:21;14.25;;;7.38;;
3463;SDS011;3551;41.578;24.706;2024-03-07T03:27:48;11.23;;;6.63;;
3463;SDS011;3551;41.578;24.706;2024-03-07T03:30:16;9.60;;;6.22;;
3463;SDS011;3551;41.578;24.706;2024-03-07T03:32:44;9.68;;;6.40;;
3463;SDS011;3551;41.578;24.706;2024-03-07T03:35:12;14.52;;;6.47;;
3463;SDS011;3551;41.578;24.706;2024-03-07T03:37:40;16.10;;;6.53;;
3463;SDS011;3551;41.578;24.706;2024-03-07T03:40:08;10.17;;;6.60;;
3463;SDS011;3551;41.578;24.706;2024-03-07T03:42:38;10.13;;;6.30;;
3463;SDS011;3551;41.578;24.706;2024-03-07T03:45:06;11.80;;;7.40;;
3463;SDS011;3551;41.578;24.706;2024-03-07T03:47:34;13.73;;;7.00;;
3463;SDS011;3551;41.578;24.706;2024-03-07T03:50:02;11.10;;;6.60;;
3463;SDS011;3551;41.578;24.706;2024-03-07T03:52:30;12.30;;;7.00;;
3463;SDS011;3551;41.578;24.706;2024-03-07T03:54:57;12.00;;;7.43;;
3463;SDS011;3551;41.578;24.706;2024-03-07T03:57:25;23.27;;;8.07;;
3463;SDS011;3551;41.578;24.706;2024-03-07T03:59:53;18.85;;;8.55;;
3463;SDS011;3551;41.578;24.706;2024-03-07T04:02:21;12.68;;;6.93;;
3463;SDS011;3551;41.578;24.706;2024-03-07T04:04:48;10.75;;;6.82;;
3463;SDS011;3551;41.578;24.706;2024-03-07T04:07:15;12.65;;;6.78;;
3463;SDS011;3551;41.578;24.706;2024-03-07T04:09:42;11.98;;;7.78;;
3463;SDS011;3551;41.578;24.706;2024-03-07T04:12:09;17.25;;;8.00;;
3463;SDS011;3551;41.578;24.706;2024-03-07T04:14:37;12.60;;;6.93;;
3463;SDS011;3551;41.578;24.706;2024-03-07T04:17:05;12.98;;;7.93;;
3463;SDS011;3551;41.578;24.706;2024-03-07T04:19:34;14.60;;;7.50;;
3463;SDS011;3551;41.578;24.706;2024-03-07T04:22:01;13.32;;;7.85;;
3463;SDS011;3551;41.578;24.706;2024-03-07T04:24:29;11.82;;;7.57;;
3463;SDS011;3551;41.578;24.706;2024-03-07T04:26:58;12.40;;;7.43;;
3463;SDS011;3551;41.578;24.706;2024-03-07T04:29:25;13.50;;;7.47;;
3463;SDS011;3551;41.578;24.706;2024-03-07T04:31:52;13.13;;;7.73;;
3463;SDS011;3551;41.578;24.706;2024-03-07T04:34:20;14.15;;;9.20;;
3463;SDS011;3551;41.578;24.706;2024-03-07T04:36:48;22.67;;;10.57;;
3463;SDS011;3551;41.578;24.706;2024-03-07T04:39:14;14.87;;;8.37;;
3463;SDS011;3551;41.578;24.706;2024-03-07T04:41:53;16.37;;;8.57;;
3463;SDS011;3551;41.578;24.706;2024-03-07T04:44:20;9.43;;;5.20;;
3463;SDS011;3551;41.578;24.706;2024-03-07T04:46:48;9.15;;;5.20;;
3463;SDS011;3551;41.578;24.706;2024-03-07T04:49:21;4.80;;;2.95;;
3463;SDS011;3551;41.578;24.706;2024-03-07T04:51:49;2.72;;;1.60;;
3463;SDS011;3551;41.578;24.706;2024-03-07T04:54:17;3.10;;;1.80;;
3463;SDS011;3551;41.578;24.706;2024-03-07T04:56:44;2.17;;;1.10;;
3463;SDS011;3551;41.578;24.706;2024-03-07T04:59:11;2.63;;;1.25;;
3463;SDS011;3551;41.578;24.706;2024-03-07T05:01:38;1.85;;;1.00;;
3463;SDS011;3551;41.578;24.706;2024-03-07T05:04:06;3.17;;;1.00;;
3463;SDS011;3551;41.578;24.706;2024-03-07T05:06:34;4.60;;;2.15;;
3463;SDS011;3551;41.578;24.706;2024-03-07T05:09:02;4.35;;;1.50;;
3463;SDS011;3551;41.578;24.706;2024-03-07T05:11:29;2.63;;;1.65;;
3463;SDS011;3551;41.578;24.706;2024-03-07T05:13:56;2.53;;;1.60;;
3463;SDS011;3551;41.578;24.706;2024-03-07T05:16:24;3.17;;;1.88;;
3463;SDS011;3551;41.578;24.706;2024-03-07T05:18:52;3.20;;;1.80;;
3463;SDS011;3551;41.578;24.706;2024-03-07T05:21:20;5.45;;;2.50;;
3463;SDS011;3551;41.578;24.706;2024-03-07T05:24:04;3.75;;;2.20;;
3463;SDS011;3551;41.578;24.706;2024-03-07T05:26:33;6.07;;;3.70;;
3463;SDS011;3551;41.578;24.706;2024-03-07T05:29:03;3.50;;;2.25;;
3463;SDS011;3551;41.578;24.706;2024-03-07T05:31:32;7.03;;;5.13;;
3463;SDS011;3551;41.578;24.706;2024-03-07T05:34:01;6.38;;;4.20;;
3463;SDS011;3551;41.578;24.706;2024-03-07T05:36:31;13.77;;;9.52;;
3463;SDS011;3551;41.578;24.706;2024-03-07T05:38:58;9.90;;;6.32;;
3463;SDS011;3551;41.578;24.706;2024-03-07T05:41:27;8.07;;;4.50;;
3463;SDS011;3551;41.578;24.706;2024-03-07T05:43:55;6.07;;;4.03;;
3463;SDS011;3551;41.578;24.706;2024-03-07T05:46:22;9.27;;;4.25;;
3463;SDS011;3551;41.578;24.706;2024-03-07T05:48:49;6.72;;;2.88;;
3463;SDS011;3551;41.578;24.706;2024-03-07T05:51:21;15.35;;;5.03;;
3463;SDS011;3551;41.578;24.706;2024-03-07T05:53:50;17.38;;;6.70;;
3463;SDS011;3551;41.578;24.706;2024-03-07T05:56:18;31.35;;;11.27;;
3463;SDS011;3551;41.578;24.706;2024-03-07T05:58:46;26.95;;;10.38;;
3463;SDS011;3551;41.578;24.706;2024-03-07T06:01:13;46.85;;;19.10;;
3463;SDS011;3551;41.578;24.706;2024-03-07T06:03:41;43.10;;;20.60;;
3463;SDS011;3551;41.578;24.706;2024-03-07T06:06:08;12.73;;;6.70;;
3463;SDS011;3551;41.578;24.706;2024-03-07T06:08:36;7.50;;;4.05;;
3463;SDS011;3551;41.578;24.706;2024-03-07T06:11:07;17.48;;;8.75;;
3463;SDS011;3551;41.578;24.706;2024-03-07T06:13:35;8.93;;;5.05;;
3463;SDS011;3551;41.578;24.706;2024-03-07T06:16:03;15.07;;;7.30;;
3463;SDS011;3551;41.578;24.706;2024-03-07T06:18:33;14.32;;;6.97;;
3463;SDS011;3551;41.578;24.706;2024-03-07T06:21:00;20.45;;;9.70;;
3463;SDS011;3551;41.578;24.706;2024-03-07T06:23:29;22.15;;;10.10;;
3463;SDS011;3551;41.578;24.706;2024-03-07T06:25:56;15.60;;;9.35;;
3463;SDS011;3551;41.578;24.706;2024-03-07T06:28:24;20.00;;;11.10;;
3463;SDS011;3551;41.578;24.706;2024-03-07T06:30:54;27.48;;;14.70;;
3463;SDS011;3551;41.578;24.706;2024-03-07T06:33:25;45.25;;;23.42;;
3463;SDS011;3551;41.578;24.706;2024-03-07T06:36:02;56.45;;;21.35;;
3463;SDS011;3551;41.578;24.706;2024-03-07T06:38:32;58.88;;;27.42;;
3463;SDS011;3551;41.578;24.706;2024-03-07T06:41:01;37.45;;;20.73;;
3463;SDS011;3551;41.578;24.706;2024-03-07T06:43:30;37.45;;;16.52;;
3463;SDS011;3551;41.578;24.706;2024-03-07T06:45:57;31.80;;;18.90;;
3463;SDS011;3551;41.578;24.706;2024-03-07T06:48:31;33.53;;;17.23;;
3463;SDS011;3551;41.578;24.706;2024-03-07T06:50:58;54.05;;;27.92;;
3463;SDS011;3551;41.578;24.706;2024-03-07T06:53:25;33.10;;;19.50;;
3463;SDS011;3551;41.578;24.706;2024-03-07T06:55:53;43.35;;;20.40;;
3463;SDS011;3551;41.578;24.706;2024-03-07T06:58:20;45.00;;;22.95;;
3463;SDS011;3551;41.578;24.706;2024-03-07T07:00:48;53.60;;;25.38;;
3463;SDS011;3551;41.578;24.706;2024-03-07T07:03:17;54.50;;;31.30;;
3463;SDS011;3551;41.578;24.706;2024-03-07T07:05:47;44.35;;;21.75;;
3463;SDS011;3551;41.578;24.706;2024-03-07T07:08:15;27.33;;;15.25;;
3463;SDS011;3551;41.578;24.706;2024-03-07T07:10:42;13.80;;;6.60;;
3463;SDS011;3551;41.578;24.706;2024-03-07T07:13:09;38.30;;;10.30;;
3463;SDS011;3551;41.578;24.706;2024-03-07T07:15:36;17.50;;;9.00;;
3463;SDS011;3551;41.578;24.706;2024-03-07T07:18:03;12.07;;;6.88;;
3463;SDS011;3551;41.578;24.706;2024-03-07T07:20:32;12.88;;;5.20;;
3463;SDS011;3551;41.578;24.706;2024-03-07T07:23:03;7.43;;;2.90;;
3463;SDS011;3551;41.578;24.706;2024-03-07T07:25:30;18.67;;;7.32;;
3463;SDS011;3551;41.578;24.706;2024-03-07T07:27:57;67.47;;;9.65;;
3463;SDS011;3551;41.578;24.706;2024-03-07T07:30:24;19.13;;;8.90;;
3463;SDS011;3551;41.578;24.706;2024-03-07T07:32:52;23.00;;;5.65;;
3463;SDS011;3551;41.578;24.706;2024-03-07T07:35:20;28.17;;;4.28;;
3463;SDS011;3551;41.578;24.706;2024-03-07T07:37:47;12.90;;;2.10;;
3463;SDS011;3551;41.578;24.706;2024-03-07T07:40:18;11.18;;;2.88;;
3463;SDS011;3551;41.578;24.706;2024-03-07T07:42:48;11.48;;;2.30;;
3463;SDS011;3551;41.578;24.706;2024-03-07T07:45:18;4.25;;;2.45;;
3463;SDS011;3551;41.578;24.706;2024-03-07T07:47:48;8.00;;;2.58;;
3463;SDS011;3551;41.578;24.706;2024-03-07T07:50:17;9.63;;;3.75;;
3463;SDS011;3551;41.578;24.706;2024-03-07T07:52:45;4.32;;;2.25;;
3463;SDS011;3551;41.578;24.706;2024-03-07T07:55:14;4.15;;;2.67;;
3463;SDS011;3551;41.578;24.706;2024-03-07T07:57:43;7.65;;;5.78;;
3463;SDS011;3551;41.578;24.706;2024-03-07T08:00:11;6.18;;;3.15;;
3463;SDS011;3551;41.578;24.706;2024-03-07T08:02:46;9.50;;;4.68;;
3463;SDS011;3551;41.578;24.706;2024-03-07T08:05:15;8.43;;;4.15;;
3463;SDS011;3551;41.578;24.706;2024-03-07T08:07:43;6.45;;;3.92;;
3463;SDS011;3551;41.578;24.706;2024-03-07T08:10:10;14.88;;;3.30;;
3463;SDS011;3551;41.578;24.706;2024-03-07T08:12:37;7.88;;;2.50;;
3463;SDS011;3551;41.578;24.706;2024-03-07T08:15:07;3.80;;;2.30;;
3463;SDS011;3551;41.578;24.706;2024-03-07T08:17:39;3.50;;;2.17;;
3463;SDS011;3551;41.578;24.706;2024-03-07T08:20:10;8.60;;;4.17;;
3463;SDS011;3551;41.578;24.706;2024-03-07T08:22:38;9.43;;;4.00;;
3463;SDS011;3551;41.578;24.706;2024-03-07T08:25:07;16.42;;;9.20;;
3463;SDS011;3551;41.578;24.706;2024-03-07T08:27:35;11.10;;;3.40;;
3463;SDS011;3551;41.578;24.706;2024-03-07T08:30:04;14.07;;;4.00;;
3463;SDS011;3551;41.578;24.706;2024-03-07T08:32:35;18.05;;;4.85;;
3463;SDS011;3551;41.578;24.706;2024-03-07T08:35:03;4.50;;;2.43;;
3463;SDS011;3551;41.578;24.706;2024-03-07T08:37:34;9.80;;;5.80;;
3463;SDS011;3551;41.578;24.706;2024-03-07T08:40:02;7.17;;;3.90;;
3463;SDS011;3551;41.578;24.706;2024-03-07T08:42:32;6.60;;;3.90;;
3463;SDS011;3551;41.578;24.706;2024-03-07T08:45:00;10.20;;;4.30;;
3463;SDS011;3551;41.578;24.706;2024-03-07T08:47:29;5.27;;;3.23;;
3463;SDS011;3551;41.578;24.706;2024-03-07T08:50:00;6.73;;;4.07;;
3463;SDS011;3551;41.578;24.706;2024-03-07T08:52:31;11.50;;;3.67;;
3463;SDS011;3551;41.578;24.706;2024-03-07T08:54:58;8.30;;;4.60;;
3463;SDS011;3551;41.578;24.706;2024-03-07T08:57:26;10.33;;;4.63;;
3463;SDS011;3551;41.578;24.706;2024-03-07T08:59:53;4.90;;;2.80;;
3463;SDS011;3551;41.578;24.706;2024-03-07T09:02:20;7.10;;;3.17;;
3463;SDS011;3551;41.578;24.706;2024-03-07T09:04:49;13.70;;;3.10;;
3463;SDS011;3551;41.578;24.706;2024-03-07T09:07:17;12.60;;;4.93;;
3463;SDS011;3551;41.578;24.706;2024-03-07T09:09:45;19.90;;;3.90;;
3463;SDS011;3551;41.578;24.706;2024-03-07T09:12:12;13.47;;;5.13;;
3463;SDS011;3551;41.578;24.706;2024-03-07T09:14:39;3.97;;;2.73;;
3463;SDS011;3551;41.578;24.706;2024-03-07T09:17:06;12.90;;;4.43;;
3463;SDS011;3551;41.578;24.706;2024-03-07T09:19:33;8.20;;;3.00;;
3463;SDS011;3551;41.578;24.706;2024-03-07T09:22:00;7.97;;;4.10;;
3463;SDS011;3551;41.578;24.706;2024-03-07T09:24:30;8.00;;;3.87;;
3463;SDS011;3551;41.578;24.706;2024-03-07T09:27:00;18.50;;;9.73;;
3463;SDS011;3551;41.578;24.706;2024-03-07T09:29:29;4.73;;;2.60;;
3463;SDS011;3551;41.578;24.706;2024-03-07T09:31:55;6.93;;;3.33;;
3463;SDS011;3551;41.578;24.706;2024-03-07T09:34:23;4.30;;;2.70;;
3463;SDS011;3551;41.578;24.706;2024-03-07T09:36:51;11.20;;;3.17;;
3463;SDS011;3551;41.578;24.706;2024-03-07T09:39:19;5.47;;;2.80;;
3463;SDS011;3551;41.578;24.706;2024-03-07T09:41:47;7.80;;;3.70;;
3463;SDS011;3551;41.578;24.706;2024-03-07T09:44:17;11.53;;;3.70;;
3463;SDS011;3551;41.578;24.706;2024-03-07T09:46:48;6.40;;;2.50;;
3463;SDS011;3551;41.578;24.706;2024-03-07T09:49:16;11.23;;;3.40;;
3463;SDS011;3551;41.578;24.706;2024-03-07T09:51:44;10.63;;;3.30;;
3463;SDS011;3551;41.578;24.706;2024-03-07T09:54:12;6.40;;;2.70;;
3463;SDS011;3551;41.578;24.706;2024-03-07T09:56:40;5.60;;;3.07;;
3463;SDS011;3551;41.578;24.706;2024-03-07T09:59:11;11.13;;;2.80;;
3463;SDS011;3551;41.578;24.706;2024-03-07T10:01:39;5.27;;;3.03;;
3463;SDS011;3551;41.578;24.706;2024-03-07T10:04:12;6.70;;;3.30;;
3463;SDS011;3551;41.578;24.706;2024-03-07T10:06:40;6.77;;;2.00;;
3463;SDS011;3551;41.578;24.706;2024-03-07T10:09:07;4.03;;;1.30;;
3463;SDS011;3551;41.578;24.706;2024-03-07T10:11:34;5.40;;;1.40;;
3463;SDS011;3551;41.578;24.706;2024-03-07T10:14:01;2.23;;;1.37;;
3463;SDS011;3551;41.578;24.706;2024-03-07T10:16:33;3.60;;;1.40;;
3463;SDS011;3551;41.578;24.706;2024-03-07T10:19:03;2.43;;;1.10;;
3463;SDS011;3551;41.578;24.706;2024-03-07T10:21:30;2.20;;;1.10;;
3463;SDS011;3551;41.578;24.706;2024-03-07T10:24:08;3.97;;;1.60;;
3463;SDS011;3551;41.578;24.706;2024-03-07T10:26:36;2.67;;;1.23;;
3463;SDS011;3551;41.578;24.706;2024-03-07T10:29:24;2.20;;;1.07;;
3463;SDS011;3551;41.578;24.706;2024-03-07T10:31:52;16.40;;;1.67;;
3463;SDS011;3551;41.578;24.706;2024-03-07T10:34:19;3.27;;;1.70;;
3463;SDS011;3551;41.578;24.706;2024-03-07T10:36:50;4.80;;;2.83;;
3463;SDS011;3551;41.578;24.706;2024-03-07T10:39:17;3.40;;;1.80;;
3463;SDS011;3551;41.578;24.706;2024-03-07T10:41:47;3.33;;;1.83;;
3463;SDS011;3551;41.578;24.706;2024-03-07T10:44:18;5.43;;;2.20;;
3463;SDS011;3551;41.578;24.706;2024-03-07T10:46:50;3.93;;;1.80;;
3463;SDS011;3551;41.578;24.706;2024-03-07T10:49:20;2.73;;;1.30;;
3463;SDS011;3551;41.578;24.706;2024-03-07T10:51:53;5.87;;;1.40;;
3463;SDS011;3551;41.578;24.706;2024-03-07T10:54:30;6.13;;;1.63;;
3463;SDS011;3551;41.578;24.706;2024-03-07T10:57:09;5.10;;;2.07;;
3463;SDS011;3551;41.578;24.706;2024-03-07T10:59:45;3.85;;;2.65;;
3463;SDS011;3551;41.578;24.706;2024-03-07T11:02:20;15.07;;;4.05;;
3463;SDS011;3551;41.578;24.706;2024-03-07T11:05:00;5.57;;;3.63;;
3463;SDS011;3551;41.578;24.706;2024-03-07T11:07:30;10.60;;;2.65;;
3463;SDS011;3551;41.578;24.706;2024-03-07T11:09:57;9.25;;;3.28;;
3463;SDS011;3551;41.578;24.706;2024-03-07T11:12:26;8.20;;;2.67;;
3463;SDS011;3551;41.578;24.706;2024-03-07T11:14:55;3.53;;;2.05;;
3463;SDS011;3551;41.578;24.706;2024-03-07T11:17:25;14.85;;;8.93;;
3463;SDS011;3551;41.578;24.706;2024-03-07T11:19:53;3.83;;;2.70;;
3463;SDS011;3551;41.578;24.706;2024-03-07T11:22:29;5.25;;;2.90;;
3463;SDS011;3551;41.578;24.706;2024-03-07T11:25:02;10.23;;;5.55;;
3463;SDS011;3551;41.578;24.706;2024-03-07T11:27:32;15.50;;;8.10;;
3463;SDS011;3551;41.578;24.706;2024-03-07T11:30:04;15.82;;;8.48;;
3463;SDS011;3551;41.578;24.706;2024-03-07T11:32:35;7.93;;;3.83;;
3463;SDS011;3551;41.578;24.706;2024-03-07T11:35:11;5.95;;;2.55;;
3463;SDS011;3551;41.578;24.706;2024-03-07T11:37:39;4.35;;;2.85;;
3463;SDS011;3551;41.578;24.706;2024-03-07T11:40:10;4.57;;;2.92;;
3463;SDS011;3551;41.578;24.706;2024-03-07T11:42:43;3.35;;;2.60;;
3463;SDS011;3551;41.578;24.706;2024-03-07T11:45:13;6.13;;;3.40;;
3463;SDS011;3551;41.578;24.706;2024-03-07T11:47:51;3.17;;;1.70;;
3463;SDS011;3551;41.578;24.706;2024-03-07T11:50:25;6.47;;;3.25;;
3463;SDS011;3551;41.578;24.706;2024-03-07T11:52:52;8.52;;;5.03;;
3463;SDS011;3551;41.578;24.706;2024-03-07T11:55:20;9.77;;;5.03;;
3463;SDS011;3551;41.578;24.706;2024-03-07T11:57:48;9.95;;;5.00;;
3463;SDS011;3551;41.578;24.706;2024-03-07T12:00:17;8.88;;;4.05;;
3463;SDS011;3551;41.578;24.706;2024-03-07T12:02:45;10.15;;;6.00;;
3463;SDS011;3551;41.578;24.706;2024-03-07T12:05:15;10.05;;;5.57;;
3463;SDS011;3551;41.578;24.706;2024-03-07T12:07:42;9.68;;;4.60;;
3463;SDS011;3551;41.578;24.706;2024-03-07T12:10:09;7.75;;;3.95;;
3463;SDS011;3551;41.578;24.706;2024-03-07T12:12:37;6.97;;;5.13;;
3463;SDS011;3551;41.578;24.706;2024-03-07T12:15:04;9.20;;;4.00;;
3463;SDS011;3551;41.578;24.706;2024-03-07T12:17:37;12.93;;;8.50;;
3463;SDS011;3551;41.578;24.706;2024-03-07T12:20:06;8.80;;;6.50;;
3463;SDS011;3551;41.578;24.706;2024-03-07T12:22:51;10.10;;;7.10;;
3463;SDS011;3551;41.578;24.706;2024-03-07T12:25:19;10.20;;;5.87;;
3463;SDS011;3551;41.578;24.706;2024-03-07T12:27:58;18.40;;;7.33;;
3463;SDS011;3551;41.578;24.706;2024-03-07T12:30:28;4.37;;;2.30;;
3463;SDS011;3551;41.578;24.706;2024-03-07T12:32:58;24.53;;;10.50;;
3463;SDS011;3551;41.578;24.706;2024-03-07T12:35:25;18.80;;;10.50;;
3463;SDS011;3551;41.578;24.706;2024-03-07T12:37:53;7.10;;;3.53;;
3463;SDS011;3551;41.578;24.706;2024-03-07T12:40:21;10.70;;;3.33;;
3463;SDS011;3551;41.578;24.706;2024-03-07T12:42:50;1.90;;;1.00;;
3463;SDS011;3551;41.578;24.706;2024-03-07T12:45:18;6.83;;;3.23;;
3463;SDS011;3551;41.578;24.706;2024-03-07T12:47:46;8.10;;;5.40;;
3463;SDS011;3551;41.578;24.706;2024-03-07T12:50:16;12.97;;;3.07;;
3463;SDS011;3551;41.578;24.706;2024-03-07T12:52:45;2.80;;;1.40;;
3463;SDS011;3551;41.578;24.706;2024-03-07T12:55:16;4.63;;;2.53;;
3463;SDS011;3551;41.578;24.706;2024-03-07T12:57:46;4.30;;;1.73;;
3463;SDS011;3551;41.578;24.706;2024-03-07T13:00:15;2.90;;;1.93;;
3463;SDS011;3551;41.578;24.706;2024-03-07T13:02:46;3.73;;;2.00;;
3463;SDS011;3551;41.578;24.706;2024-03-07T13:05:13;3.87;;;2.07;;
3463;SDS011;3551;41.578;24.706;2024-03-07T13:07:47;6.77;;;1.90;;
3463;SDS011;3551;41.578;24.706;2024-03-07T13:10:14;8.37;;;3.73;;
3463;SDS011;3551;41.578;24.706;2024-03-07T13:12:45;4.63;;;3.30;;
3463;SDS011;3551;41.578;24.706;2024-03-07T13:15:14;7.43;;;3.10;;
3463;SDS011;3551;41.578;24.706;2024-03-07T13:17:41;5.27;;;3.10;;
3463;SDS011;3551;41.578;24.706;2024-03-07T13:20:08;3.90;;;2.07;;
3463;SDS011;3551;41.578;24.706;2024-03-07T13:22:41;8.63;;;2.53;;
3463;SDS011;3551;41.578;24.706;2024-03-07T13:25:09;8.30;;;2.40;;
3463;SDS011;3551;41.578;24.706;2024-03-07T13:27:43;4.33;;;2.33;;
